Saint-Lin, Canada
Current Conditions -  °F | °C
As of 3:00 PM on Thursday 23 Oct 2014 (Local Time) from CYMX Reporting Station
Rain Showers Rain Showers  
Wind Chill:   Ceiling: 3500
Heat Index:   Visibility: 10mi
Dew Point:   Wind: 8mph
Humidity: 82%   Direction: 60°ENE
Pressure: 30.02"   Gusts: NA
Location:  45.85°N, 73.77°W
Report Text: CYMX 231900Z 06007KT 10SM -SHRA FEW012 OVC035 09/06 A3002 RMK SF1SC7 SLP168
Loading
Personal Weather Stations






























Interactive Weather Map
Tropical Storm Tracking
New forecast layout! Learn more

10-Day Weather Forecast

Advertisements
Track Severe Weather on mobile